sensor_id;sensor_type;location;lat;lon;timestamp;P1;durP1;ratioP1;P2;durP2;ratioP2
13475;SDS011;6810;63.824;20.288;2023-09-07T00:01:01;3.63;;;1.20;;
13475;SDS011;6810;63.824;20.288;2023-09-07T00:03:52;3.13;;;0.90;;
13475;SDS011;6810;63.824;20.288;2023-09-07T00:06:40;2.63;;;1.10;;
13475;SDS011;6810;63.824;20.288;2023-09-07T00:09:27;3.67;;;1.30;;
13475;SDS011;6810;63.824;20.288;2023-09-07T00:12:14;3.37;;;1.00;;
13475;SDS011;6810;63.824;20.288;2023-09-07T00:15:01;1.80;;;0.87;;
13475;SDS011;6810;63.824;20.288;2023-09-07T00:17:49;5.40;;;1.10;;
13475;SDS011;6810;63.824;20.288;2023-09-07T00:20:36;3.50;;;0.93;;
13475;SDS011;6810;63.824;20.288;2023-09-07T00:23:23;2.00;;;1.00;;
13475;SDS011;6810;63.824;20.288;2023-09-07T00:26:10;2.77;;;1.07;;
13475;SDS011;6810;63.824;20.288;2023-09-07T00:28:57;5.20;;;1.07;;
13475;SDS011;6810;63.824;20.288;2023-09-07T00:31:44;5.10;;;1.33;;
13475;SDS011;6810;63.824;20.288;2023-09-07T00:34:31;3.80;;;1.03;;
13475;SDS011;6810;63.824;20.288;2023-09-07T00:37:18;2.97;;;1.00;;
13475;SDS011;6810;63.824;20.288;2023-09-07T00:40:05;3.10;;;1.03;;
13475;SDS011;6810;63.824;20.288;2023-09-07T00:42:53;3.53;;;1.00;;
13475;SDS011;6810;63.824;20.288;2023-09-07T00:45:41;1.57;;;0.83;;
13475;SDS011;6810;63.824;20.288;2023-09-07T00:48:28;1.90;;;0.90;;
13475;SDS011;6810;63.824;20.288;2023-09-07T00:51:15;2.97;;;1.33;;
13475;SDS011;6810;63.824;20.288;2023-09-07T00:54:02;2.67;;;0.90;;
13475;SDS011;6810;63.824;20.288;2023-09-07T00:56:49;1.80;;;1.00;;
13475;SDS011;6810;63.824;20.288;2023-09-07T00:59:37;4.37;;;1.40;;
13475;SDS011;6810;63.824;20.288;2023-09-07T01:02:24;2.87;;;0.90;;
13475;SDS011;6810;63.824;20.288;2023-09-07T01:05:11;3.37;;;0.80;;
13475;SDS011;6810;63.824;20.288;2023-09-07T01:08:01;1.60;;;1.03;;
13475;SDS011;6810;63.824;20.288;2023-09-07T01:10:54;3.73;;;1.10;;
13475;SDS011;6810;63.824;20.288;2023-09-07T01:13:42;2.07;;;0.87;;
13475;SDS011;6810;63.824;20.288;2023-09-07T01:16:29;5.00;;;1.37;;
13475;SDS011;6810;63.824;20.288;2023-09-07T01:19:17;2.17;;;0.80;;
13475;SDS011;6810;63.824;20.288;2023-09-07T01:22:06;2.07;;;0.90;;
13475;SDS011;6810;63.824;20.288;2023-09-07T01:24:54;2.50;;;1.03;;
13475;SDS011;6810;63.824;20.288;2023-09-07T01:27:41;4.17;;;0.97;;
13475;SDS011;6810;63.824;20.288;2023-09-07T01:30:28;1.63;;;1.00;;
13475;SDS011;6810;63.824;20.288;2023-09-07T01:33:15;3.87;;;1.10;;
13475;SDS011;6810;63.824;20.288;2023-09-07T01:36:03;2.87;;;1.00;;
13475;SDS011;6810;63.824;20.288;2023-09-07T01:38:50;2.67;;;1.00;;
13475;SDS011;6810;63.824;20.288;2023-09-07T01:41:37;4.43;;;1.50;;
13475;SDS011;6810;63.824;20.288;2023-09-07T01:44:24;4.87;;;1.07;;
13475;SDS011;6810;63.824;20.288;2023-09-07T01:47:11;3.10;;;1.03;;
13475;SDS011;6810;63.824;20.288;2023-09-07T01:49:58;2.83;;;0.87;;
13475;SDS011;6810;63.824;20.288;2023-09-07T01:52:48;3.17;;;1.23;;
13475;SDS011;6810;63.824;20.288;2023-09-07T01:55:35;3.10;;;1.17;;
13475;SDS011;6810;63.824;20.288;2023-09-07T01:58:23;1.90;;;0.90;;
13475;SDS011;6810;63.824;20.288;2023-09-07T02:04:12;2.00;;;0.90;;
13475;SDS011;6810;63.824;20.288;2023-09-07T02:06:59;3.67;;;0.90;;
13475;SDS011;6810;63.824;20.288;2023-09-07T02:09:47;1.93;;;1.00;;
13475;SDS011;6810;63.824;20.288;2023-09-07T02:12:34;3.00;;;1.10;;
13475;SDS011;6810;63.824;20.288;2023-09-07T02:15:21;3.97;;;1.20;;
13475;SDS011;6810;63.824;20.288;2023-09-07T02:18:08;3.33;;;0.90;;
13475;SDS011;6810;63.824;20.288;2023-09-07T02:21:00;3.13;;;1.00;;
13475;SDS011;6810;63.824;20.288;2023-09-07T02:23:51;2.27;;;1.03;;
13475;SDS011;6810;63.824;20.288;2023-09-07T02:26:38;4.57;;;1.00;;
13475;SDS011;6810;63.824;20.288;2023-09-07T02:29:25;0.90;;;0.60;;
13475;SDS011;6810;63.824;20.288;2023-09-07T02:32:13;1.23;;;0.70;;
13475;SDS011;6810;63.824;20.288;2023-09-07T02:35:00;2.53;;;1.37;;
13475;SDS011;6810;63.824;20.288;2023-09-07T02:37:47;3.00;;;0.87;;
13475;SDS011;6810;63.824;20.288;2023-09-07T02:40:41;5.87;;;1.27;;
13475;SDS011;6810;63.824;20.288;2023-09-07T02:43:29;3.23;;;1.03;;
13475;SDS011;6810;63.824;20.288;2023-09-07T02:46:16;2.30;;;0.90;;
13475;SDS011;6810;63.824;20.288;2023-09-07T02:49:03;3.07;;;1.20;;
13475;SDS011;6810;63.824;20.288;2023-09-07T02:51:51;2.23;;;0.83;;
13475;SDS011;6810;63.824;20.288;2023-09-07T02:54:38;2.23;;;0.97;;
13475;SDS011;6810;63.824;20.288;2023-09-07T02:57:25;0.87;;;0.80;;
13475;SDS011;6810;63.824;20.288;2023-09-07T03:00:12;2.90;;;0.87;;
13475;SDS011;6810;63.824;20.288;2023-09-07T03:02:59;1.33;;;0.80;;
13475;SDS011;6810;63.824;20.288;2023-09-07T03:05:47;4.57;;;0.90;;
13475;SDS011;6810;63.824;20.288;2023-09-07T03:08:34;1.37;;;0.90;;
13475;SDS011;6810;63.824;20.288;2023-09-07T03:11:21;2.00;;;0.90;;
13475;SDS011;6810;63.824;20.288;2023-09-07T03:14:08;2.27;;;0.90;;
13475;SDS011;6810;63.824;20.288;2023-09-07T03:16:55;2.83;;;1.00;;
13475;SDS011;6810;63.824;20.288;2023-09-07T03:19:42;4.13;;;1.00;;
13475;SDS011;6810;63.824;20.288;2023-09-07T03:22:30;8.00;;;1.40;;
13475;SDS011;6810;63.824;20.288;2023-09-07T03:25:17;2.10;;;0.80;;
13475;SDS011;6810;63.824;20.288;2023-09-07T03:28:04;2.07;;;0.90;;
13475;SDS011;6810;63.824;20.288;2023-09-07T03:30:52;1.53;;;0.97;;
13475;SDS011;6810;63.824;20.288;2023-09-07T03:33:41;2.73;;;0.87;;
13475;SDS011;6810;63.824;20.288;2023-09-07T03:36:29;1.97;;;0.70;;
13475;SDS011;6810;63.824;20.288;2023-09-07T03:39:16;3.47;;;1.20;;
13475;SDS011;6810;63.824;20.288;2023-09-07T03:42:03;2.27;;;0.90;;
13475;SDS011;6810;63.824;20.288;2023-09-07T03:44:51;2.53;;;1.00;;
13475;SDS011;6810;63.824;20.288;2023-09-07T03:47:38;2.43;;;0.97;;
13475;SDS011;6810;63.824;20.288;2023-09-07T03:50:25;3.73;;;1.00;;
13475;SDS011;6810;63.824;20.288;2023-09-07T03:53:13;1.70;;;0.80;;
13475;SDS011;6810;63.824;20.288;2023-09-07T03:56:01;4.03;;;1.00;;
13475;SDS011;6810;63.824;20.288;2023-09-07T03:58:49;2.40;;;0.90;;
13475;SDS011;6810;63.824;20.288;2023-09-07T04:01:36;2.17;;;1.30;;
13475;SDS011;6810;63.824;20.288;2023-09-07T04:04:23;2.97;;;1.10;;
13475;SDS011;6810;63.824;20.288;2023-09-07T04:07:10;3.07;;;1.10;;
13475;SDS011;6810;63.824;20.288;2023-09-07T04:09:57;3.07;;;0.97;;
13475;SDS011;6810;63.824;20.288;2023-09-07T04:12:44;2.70;;;1.43;;
13475;SDS011;6810;63.824;20.288;2023-09-07T04:15:33;4.87;;;1.57;;
13475;SDS011;6810;63.824;20.288;2023-09-07T04:18:21;2.47;;;1.87;;
13475;SDS011;6810;63.824;20.288;2023-09-07T04:21:08;4.50;;;1.67;;
13475;SDS011;6810;63.824;20.288;2023-09-07T04:23:55;2.30;;;1.30;;
13475;SDS011;6810;63.824;20.288;2023-09-07T04:26:42;3.33;;;1.80;;
13475;SDS011;6810;63.824;20.288;2023-09-07T04:29:31;5.77;;;1.60;;
13475;SDS011;6810;63.824;20.288;2023-09-07T04:32:18;3.50;;;1.10;;
13475;SDS011;6810;63.824;20.288;2023-09-07T04:35:06;1.87;;;1.30;;
13475;SDS011;6810;63.824;20.288;2023-09-07T04:37:53;2.80;;;1.37;;
13475;SDS011;6810;63.824;20.288;2023-09-07T04:40:41;3.10;;;1.40;;
13475;SDS011;6810;63.824;20.288;2023-09-07T04:43:28;4.00;;;1.30;;
13475;SDS011;6810;63.824;20.288;2023-09-07T04:46:15;4.80;;;1.00;;
13475;SDS011;6810;63.824;20.288;2023-09-07T04:49:02;4.77;;;1.67;;
13475;SDS011;6810;63.824;20.288;2023-09-07T04:51:49;3.17;;;1.43;;
13475;SDS011;6810;63.824;20.288;2023-09-07T04:54:39;3.50;;;1.10;;
13475;SDS011;6810;63.824;20.288;2023-09-07T04:57:26;2.67;;;1.20;;
13475;SDS011;6810;63.824;20.288;2023-09-07T05:00:14;5.27;;;1.30;;
13475;SDS011;6810;63.824;20.288;2023-09-07T05:03:01;2.50;;;1.13;;
13475;SDS011;6810;63.824;20.288;2023-09-07T05:05:52;4.13;;;1.10;;
13475;SDS011;6810;63.824;20.288;2023-09-07T05:08:40;4.50;;;1.27;;
13475;SDS011;6810;63.824;20.288;2023-09-07T05:11:27;3.60;;;1.20;;
13475;SDS011;6810;63.824;20.288;2023-09-07T05:14:14;3.20;;;1.23;;
13475;SDS011;6810;63.824;20.288;2023-09-07T05:17:01;4.17;;;1.60;;
13475;SDS011;6810;63.824;20.288;2023-09-07T05:19:48;6.93;;;1.50;;
13475;SDS011;6810;63.824;20.288;2023-09-07T05:22:35;6.10;;;1.30;;
13475;SDS011;6810;63.824;20.288;2023-09-07T05:25:22;4.90;;;1.50;;
13475;SDS011;6810;63.824;20.288;2023-09-07T05:28:09;2.70;;;1.17;;
13475;SDS011;6810;63.824;20.288;2023-09-07T05:30:56;4.73;;;1.20;;
13475;SDS011;6810;63.824;20.288;2023-09-07T05:33:44;4.77;;;1.77;;
13475;SDS011;6810;63.824;20.288;2023-09-07T05:36:31;7.43;;;2.00;;
13475;SDS011;6810;63.824;20.288;2023-09-07T05:39:18;8.43;;;1.90;;
13475;SDS011;6810;63.824;20.288;2023-09-07T05:42:05;7.73;;;1.53;;
13475;SDS011;6810;63.824;20.288;2023-09-07T05:44:52;6.47;;;1.57;;
13475;SDS011;6810;63.824;20.288;2023-09-07T05:47:39;4.50;;;1.70;;
13475;SDS011;6810;63.824;20.288;2023-09-07T05:50:26;1.80;;;1.37;;
13475;SDS011;6810;63.824;20.288;2023-09-07T05:53:13;4.50;;;1.50;;
13475;SDS011;6810;63.824;20.288;2023-09-07T05:56:01;5.30;;;1.73;;
13475;SDS011;6810;63.824;20.288;2023-09-07T05:58:48;5.00;;;1.47;;
13475;SDS011;6810;63.824;20.288;2023-09-07T06:01:35;6.47;;;2.10;;
13475;SDS011;6810;63.824;20.288;2023-09-07T06:04:22;4.43;;;1.87;;
13475;SDS011;6810;63.824;20.288;2023-09-07T06:07:10;7.03;;;2.00;;
13475;SDS011;6810;63.824;20.288;2023-09-07T06:09:57;6.57;;;1.97;;
13475;SDS011;6810;63.824;20.288;2023-09-07T06:12:44;4.87;;;1.87;;
13475;SDS011;6810;63.824;20.288;2023-09-07T06:15:32;6.47;;;2.10;;
13475;SDS011;6810;63.824;20.288;2023-09-07T06:18:19;4.87;;;1.97;;
13475;SDS011;6810;63.824;20.288;2023-09-07T06:21:06;5.70;;;1.60;;
13475;SDS011;6810;63.824;20.288;2023-09-07T06:23:53;4.70;;;1.50;;
13475;SDS011;6810;63.824;20.288;2023-09-07T06:26:41;5.30;;;1.57;;
13475;SDS011;6810;63.824;20.288;2023-09-07T06:29:29;4.77;;;1.63;;
13475;SDS011;6810;63.824;20.288;2023-09-07T06:32:16;3.57;;;1.50;;
13475;SDS011;6810;63.824;20.288;2023-09-07T06:35:03;8.77;;;1.80;;
13475;SDS011;6810;63.824;20.288;2023-09-07T06:37:50;3.60;;;1.80;;
13475;SDS011;6810;63.824;20.288;2023-09-07T06:40:41;5.60;;;1.87;;
13475;SDS011;6810;63.824;20.288;2023-09-07T06:43:35;4.83;;;1.60;;
13475;SDS011;6810;63.824;20.288;2023-09-07T06:46:22;4.90;;;1.43;;
13475;SDS011;6810;63.824;20.288;2023-09-07T06:49:09;4.97;;;1.70;;
13475;SDS011;6810;63.824;20.288;2023-09-07T06:51:57;7.20;;;1.67;;
13475;SDS011;6810;63.824;20.288;2023-09-07T06:54:44;6.07;;;2.10;;
13475;SDS011;6810;63.824;20.288;2023-09-07T06:57:31;4.87;;;1.67;;
13475;SDS011;6810;63.824;20.288;2023-09-07T07:00:19;3.57;;;1.30;;
13475;SDS011;6810;63.824;20.288;2023-09-07T07:03:06;4.83;;;1.83;;
13475;SDS011;6810;63.824;20.288;2023-09-07T07:05:53;5.93;;;1.70;;
13475;SDS011;6810;63.824;20.288;2023-09-07T07:08:41;3.43;;;1.70;;
13475;SDS011;6810;63.824;20.288;2023-09-07T07:11:28;5.77;;;1.73;;
13475;SDS011;6810;63.824;20.288;2023-09-07T07:14:15;5.50;;;1.73;;
13475;SDS011;6810;63.824;20.288;2023-09-07T07:17:02;6.80;;;2.00;;
13475;SDS011;6810;63.824;20.288;2023-09-07T07:19:49;6.47;;;1.97;;
13475;SDS011;6810;63.824;20.288;2023-09-07T07:22:36;3.90;;;1.53;;
13475;SDS011;6810;63.824;20.288;2023-09-07T07:25:23;3.03;;;1.37;;
13475;SDS011;6810;63.824;20.288;2023-09-07T07:28:11;3.93;;;1.50;;
13475;SDS011;6810;63.824;20.288;2023-09-07T07:30:58;5.33;;;1.30;;
13475;SDS011;6810;63.824;20.288;2023-09-07T07:33:46;3.80;;;1.53;;
13475;SDS011;6810;63.824;20.288;2023-09-07T07:36:33;5.03;;;1.70;;
13475;SDS011;6810;63.824;20.288;2023-09-07T07:39:22;2.73;;;1.23;;
13475;SDS011;6810;63.824;20.288;2023-09-07T07:42:10;3.07;;;1.30;;
13475;SDS011;6810;63.824;20.288;2023-09-07T07:44:58;2.57;;;1.20;;
13475;SDS011;6810;63.824;20.288;2023-09-07T07:47:45;5.73;;;1.60;;
13475;SDS011;6810;63.824;20.288;2023-09-07T07:50:35;2.20;;;1.20;;
13475;SDS011;6810;63.824;20.288;2023-09-07T07:53:23;5.90;;;1.63;;
13475;SDS011;6810;63.824;20.288;2023-09-07T07:56:14;5.10;;;1.13;;
13475;SDS011;6810;63.824;20.288;2023-09-07T07:59:02;3.00;;;1.43;;
13475;SDS011;6810;63.824;20.288;2023-09-07T08:01:50;5.97;;;1.30;;
13475;SDS011;6810;63.824;20.288;2023-09-07T08:04:37;7.23;;;1.60;;
13475;SDS011;6810;63.824;20.288;2023-09-07T08:07:25;4.67;;;1.27;;
13475;SDS011;6810;63.824;20.288;2023-09-07T08:10:12;4.53;;;1.50;;
13475;SDS011;6810;63.824;20.288;2023-09-07T08:12:59;3.60;;;1.10;;
13475;SDS011;6810;63.824;20.288;2023-09-07T08:15:47;3.53;;;1.10;;
13475;SDS011;6810;63.824;20.288;2023-09-07T08:18:36;2.80;;;1.30;;
13475;SDS011;6810;63.824;20.288;2023-09-07T08:21:23;5.70;;;1.30;;
13475;SDS011;6810;63.824;20.288;2023-09-07T08:24:10;3.67;;;1.00;;
13475;SDS011;6810;63.824;20.288;2023-09-07T08:26:57;2.40;;;1.03;;
13475;SDS011;6810;63.824;20.288;2023-09-07T08:29:49;2.63;;;1.13;;
13475;SDS011;6810;63.824;20.288;2023-09-07T08:32:36;4.10;;;1.03;;
13475;SDS011;6810;63.824;20.288;2023-09-07T08:35:23;3.43;;;1.40;;
13475;SDS011;6810;63.824;20.288;2023-09-07T08:38:10;2.07;;;1.00;;
13475;SDS011;6810;63.824;20.288;2023-09-07T08:41:00;2.80;;;1.00;;
13475;SDS011;6810;63.824;20.288;2023-09-07T08:43:48;4.03;;;1.03;;
13475;SDS011;6810;63.824;20.288;2023-09-07T08:46:39;2.83;;;1.20;;
13475;SDS011;6810;63.824;20.288;2023-09-07T08:49:27;2.83;;;1.10;;
13475;SDS011;6810;63.824;20.288;2023-09-07T08:52:14;3.17;;;1.17;;
13475;SDS011;6810;63.824;20.288;2023-09-07T08:55:02;4.57;;;1.00;;
13475;SDS011;6810;63.824;20.288;2023-09-07T08:57:53;4.30;;;1.50;;
13475;SDS011;6810;63.824;20.288;2023-09-07T09:00:40;2.63;;;0.90;;
13475;SDS011;6810;63.824;20.288;2023-09-07T09:03:32;2.93;;;1.27;;
13475;SDS011;6810;63.824;20.288;2023-09-07T09:06:20;2.43;;;1.17;;
13475;SDS011;6810;63.824;20.288;2023-09-07T09:09:07;3.10;;;1.27;;
13475;SDS011;6810;63.824;20.288;2023-09-07T09:11:55;3.30;;;1.30;;
13475;SDS011;6810;63.824;20.288;2023-09-07T09:14:42;2.27;;;1.20;;
13475;SDS011;6810;63.824;20.288;2023-09-07T09:17:33;2.73;;;1.00;;
13475;SDS011;6810;63.824;20.288;2023-09-07T09:20:23;2.47;;;0.90;;
13475;SDS011;6810;63.824;20.288;2023-09-07T09:23:11;4.03;;;1.33;;
13475;SDS011;6810;63.824;20.288;2023-09-07T09:25:59;3.17;;;1.00;;
13475;SDS011;6810;63.824;20.288;2023-09-07T09:28:46;3.07;;;1.30;;
13475;SDS011;6810;63.824;20.288;2023-09-07T09:31:33;4.27;;;0.97;;
13475;SDS011;6810;63.824;20.288;2023-09-07T09:34:20;3.40;;;0.90;;
13475;SDS011;6810;63.824;20.288;2023-09-07T09:37:12;3.60;;;1.07;;
13475;SDS011;6810;63.824;20.288;2023-09-07T09:40:00;3.73;;;1.30;;
13475;SDS011;6810;63.824;20.288;2023-09-07T09:42:48;3.00;;;0.90;;
13475;SDS011;6810;63.824;20.288;2023-09-07T09:45:38;2.13;;;1.10;;
13475;SDS011;6810;63.824;20.288;2023-09-07T09:48:27;3.60;;;1.10;;
13475;SDS011;6810;63.824;20.288;2023-09-07T09:51:14;2.77;;;1.00;;
13475;SDS011;6810;63.824;20.288;2023-09-07T09:54:01;1.87;;;0.80;;
13475;SDS011;6810;63.824;20.288;2023-09-07T09:56:50;2.17;;;0.80;;
13475;SDS011;6810;63.824;20.288;2023-09-07T09:59:37;1.80;;;1.00;;
13475;SDS011;6810;63.824;20.288;2023-09-07T10:02:25;3.83;;;1.10;;
13475;SDS011;6810;63.824;20.288;2023-09-07T10:05:12;2.30;;;0.90;;
13475;SDS011;6810;63.824;20.288;2023-09-07T10:08:01;3.27;;;1.00;;
13475;SDS011;6810;63.824;20.288;2023-09-07T10:10:52;2.53;;;1.30;;
13475;SDS011;6810;63.824;20.288;2023-09-07T10:13:40;4.27;;;1.07;;
13475;SDS011;6810;63.824;20.288;2023-09-07T10:16:27;1.97;;;1.00;;
13475;SDS011;6810;63.824;20.288;2023-09-07T10:19:18;4.13;;;1.43;;
13475;SDS011;6810;63.824;20.288;2023-09-07T10:22:05;3.60;;;1.13;;
13475;SDS011;6810;63.824;20.288;2023-09-07T10:24:58;3.53;;;1.07;;
13475;SDS011;6810;63.824;20.288;2023-09-07T10:27:45;2.90;;;1.07;;
13475;SDS011;6810;63.824;20.288;2023-09-07T10:30:32;2.83;;;1.10;;
13475;SDS011;6810;63.824;20.288;2023-09-07T10:33:20;5.47;;;1.40;;
13475;SDS011;6810;63.824;20.288;2023-09-07T10:36:08;4.20;;;1.20;;
13475;SDS011;6810;63.824;20.288;2023-09-07T10:38:55;3.73;;;1.27;;
13475;SDS011;6810;63.824;20.288;2023-09-07T10:41:45;1.83;;;0.93;;
13475;SDS011;6810;63.824;20.288;2023-09-07T10:44:32;4.47;;;1.20;;
13475;SDS011;6810;63.824;20.288;2023-09-07T10:47:19;2.97;;;1.10;;
13475;SDS011;6810;63.824;20.288;2023-09-07T10:50:07;3.67;;;1.07;;
13475;SDS011;6810;63.824;20.288;2023-09-07T10:52:55;4.43;;;1.30;;
13475;SDS011;6810;63.824;20.288;2023-09-07T10:55:42;1.97;;;1.07;;
13475;SDS011;6810;63.824;20.288;2023-09-07T10:58:33;2.37;;;1.20;;
13475;SDS011;6810;63.824;20.288;2023-09-07T11:01:21;3.20;;;1.13;;
13475;SDS011;6810;63.824;20.288;2023-09-07T11:04:08;1.97;;;1.20;;
13475;SDS011;6810;63.824;20.288;2023-09-07T11:06:55;6.50;;;1.10;;
13475;SDS011;6810;63.824;20.288;2023-09-07T11:09:42;3.90;;;1.30;;
13475;SDS011;6810;63.824;20.288;2023-09-07T11:12:30;2.63;;;1.03;;
13475;SDS011;6810;63.824;20.288;2023-09-07T11:15:23;3.07;;;1.17;;
13475;SDS011;6810;63.824;20.288;2023-09-07T11:18:10;3.53;;;1.40;;
13475;SDS011;6810;63.824;20.288;2023-09-07T11:20:57;3.07;;;1.20;;
13475;SDS011;6810;63.824;20.288;2023-09-07T11:23:44;3.53;;;1.33;;
13475;SDS011;6810;63.824;20.288;2023-09-07T11:26:44;4.20;;;1.20;;
13475;SDS011;6810;63.824;20.288;2023-09-07T11:29:32;3.17;;;1.40;;
13475;SDS011;6810;63.824;20.288;2023-09-07T11:32:19;2.97;;;1.23;;
13475;SDS011;6810;63.824;20.288;2023-09-07T11:35:06;2.90;;;1.30;;
13475;SDS011;6810;63.824;20.288;2023-09-07T11:37:55;2.97;;;1.20;;
13475;SDS011;6810;63.824;20.288;2023-09-07T11:40:43;2.07;;;1.40;;
13475;SDS011;6810;63.824;20.288;2023-09-07T11:43:30;3.80;;;1.27;;
13475;SDS011;6810;63.824;20.288;2023-09-07T11:46:17;2.50;;;1.10;;
13475;SDS011;6810;63.824;20.288;2023-09-07T11:49:04;2.23;;;1.20;;
13475;SDS011;6810;63.824;20.288;2023-09-07T11:51:51;3.77;;;1.43;;
13475;SDS011;6810;63.824;20.288;2023-09-07T11:54:38;2.33;;;1.30;;
13475;SDS011;6810;63.824;20.288;2023-09-07T11:57:25;2.87;;;1.13;;
13475;SDS011;6810;63.824;20.288;2023-09-07T12:00:13;2.07;;;1.20;;
13475;SDS011;6810;63.824;20.288;2023-09-07T12:03:00;2.50;;;1.33;;
13475;SDS011;6810;63.824;20.288;2023-09-07T12:05:47;4.27;;;1.50;;
13475;SDS011;6810;63.824;20.288;2023-09-07T12:08:34;4.17;;;1.57;;
13475;SDS011;6810;63.824;20.288;2023-09-07T12:11:23;5.30;;;1.40;;
13475;SDS011;6810;63.824;20.288;2023-09-07T12:14:10;2.97;;;1.30;;
13475;SDS011;6810;63.824;20.288;2023-09-07T12:16:57;2.67;;;1.40;;
13475;SDS011;6810;63.824;20.288;2023-09-07T12:19:44;2.77;;;1.40;;
13475;SDS011;6810;63.824;20.288;2023-09-07T12:22:31;2.20;;;1.30;;
13475;SDS011;6810;63.824;20.288;2023-09-07T12:25:18;3.17;;;1.50;;
13475;SDS011;6810;63.824;20.288;2023-09-07T12:28:05;4.87;;;1.40;;
13475;SDS011;6810;63.824;20.288;2023-09-07T12:30:52;2.07;;;1.20;;
13475;SDS011;6810;63.824;20.288;2023-09-07T12:33:39;4.83;;;1.50;;
13475;SDS011;6810;63.824;20.288;2023-09-07T12:36:26;3.30;;;1.00;;
13475;SDS011;6810;63.824;20.288;2023-09-07T12:39:13;4.70;;;1.53;;
13475;SDS011;6810;63.824;20.288;2023-09-07T12:42:00;2.20;;;1.13;;
13475;SDS011;6810;63.824;20.288;2023-09-07T12:44:48;2.10;;;1.23;;
13475;SDS011;6810;63.824;20.288;2023-09-07T12:47:35;2.20;;;1.10;;
13475;SDS011;6810;63.824;20.288;2023-09-07T12:50:22;3.40;;;1.30;;
13475;SDS011;6810;63.824;20.288;2023-09-07T12:53:09;5.17;;;1.17;;
13475;SDS011;6810;63.824;20.288;2023-09-07T12:55:56;2.10;;;1.27;;
13475;SDS011;6810;63.824;20.288;2023-09-07T12:58:44;3.57;;;1.23;;
13475;SDS011;6810;63.824;20.288;2023-09-07T13:01:31;2.20;;;1.30;;
13475;SDS011;6810;63.824;20.288;2023-09-07T13:04:20;2.47;;;1.30;;
13475;SDS011;6810;63.824;20.288;2023-09-07T13:07:08;1.67;;;1.20;;
13475;SDS011;6810;63.824;20.288;2023-09-07T13:09:55;3.43;;;1.50;;
13475;SDS011;6810;63.824;20.288;2023-09-07T13:12:42;2.57;;;1.40;;
13475;SDS011;6810;63.824;20.288;2023-09-07T13:15:29;5.30;;;1.57;;
13475;SDS011;6810;63.824;20.288;2023-09-07T13:18:16;1.87;;;1.07;;
13475;SDS011;6810;63.824;20.288;2023-09-07T13:21:03;2.23;;;1.20;;
13475;SDS011;6810;63.824;20.288;2023-09-07T13:23:50;1.43;;;1.30;;
13475;SDS011;6810;63.824;20.288;2023-09-07T13:26:37;2.00;;;1.20;;
13475;SDS011;6810;63.824;20.288;2023-09-07T13:29:23;1.70;;;1.17;;
13475;SDS011;6810;63.824;20.288;2023-09-07T13:32:10;3.33;;;1.53;;
13475;SDS011;6810;63.824;20.288;2023-09-07T13:34:57;3.80;;;1.50;;
13475;SDS011;6810;63.824;20.288;2023-09-07T13:37:45;1.83;;;1.10;;
13475;SDS011;6810;63.824;20.288;2023-09-07T13:40:31;2.40;;;1.30;;
13475;SDS011;6810;63.824;20.288;2023-09-07T13:43:18;4.33;;;1.40;;
13475;SDS011;6810;63.824;20.288;2023-09-07T13:46:05;2.67;;;1.30;;
13475;SDS011;6810;63.824;20.288;2023-09-07T13:48:52;4.07;;;1.60;;
13475;SDS011;6810;63.824;20.288;2023-09-07T13:51:40;3.70;;;1.53;;
13475;SDS011;6810;63.824;20.288;2023-09-07T13:54:27;2.87;;;1.37;;
13475;SDS011;6810;63.824;20.288;2023-09-07T13:57:14;3.50;;;1.20;;
13475;SDS011;6810;63.824;20.288;2023-09-07T14:00:01;2.67;;;1.40;;
13475;SDS011;6810;63.824;20.288;2023-09-07T14:02:48;3.67;;;1.60;;
13475;SDS011;6810;63.824;20.288;2023-09-07T14:05:35;1.53;;;1.30;;
13475;SDS011;6810;63.824;20.288;2023-09-07T14:08:22;2.43;;;1.43;;
13475;SDS011;6810;63.824;20.288;2023-09-07T14:11:09;2.97;;;1.47;;
13475;SDS011;6810;63.824;20.288;2023-09-07T14:13:56;4.23;;;1.40;;
13475;SDS011;6810;63.824;20.288;2023-09-07T14:16:43;3.87;;;1.23;;
13475;SDS011;6810;63.824;20.288;2023-09-07T14:19:30;3.10;;;1.40;;
13475;SDS011;6810;63.824;20.288;2023-09-07T14:22:17;2.80;;;1.67;;
13475;SDS011;6810;63.824;20.288;2023-09-07T14:25:04;4.50;;;1.30;;
13475;SDS011;6810;63.824;20.288;2023-09-07T14:27:51;2.30;;;1.30;;
13475;SDS011;6810;63.824;20.288;2023-09-07T14:30:38;4.83;;;1.50;;
13475;SDS011;6810;63.824;20.288;2023-09-07T14:33:25;2.53;;;1.27;;
13475;SDS011;6810;63.824;20.288;2023-09-07T14:36:12;4.73;;;1.30;;
13475;SDS011;6810;63.824;20.288;2023-09-07T14:38:59;3.00;;;1.20;;
13475;SDS011;6810;63.824;20.288;2023-09-07T14:41:46;5.37;;;1.90;;
13475;SDS011;6810;63.824;20.288;2023-09-07T14:44:33;2.83;;;1.40;;
13475;SDS011;6810;63.824;20.288;2023-09-07T14:47:20;4.97;;;1.20;;
13475;SDS011;6810;63.824;20.288;2023-09-07T14:50:07;3.97;;;1.30;;
13475;SDS011;6810;63.824;20.288;2023-09-07T14:52:55;1.73;;;1.20;;
13475;SDS011;6810;63.824;20.288;2023-09-07T14:55:42;4.47;;;1.37;;
13475;SDS011;6810;63.824;20.288;2023-09-07T14:58:29;3.17;;;1.40;;
13475;SDS011;6810;63.824;20.288;2023-09-07T15:01:16;2.83;;;1.20;;
13475;SDS011;6810;63.824;20.288;2023-09-07T15:03:43;3.07;;;1.10;;
13475;SDS011;6810;63.824;20.288;2023-09-07T15:06:11;2.60;;;1.30;;
13475;SDS011;6810;63.824;20.288;2023-09-07T15:08:39;2.90;;;1.30;;
13475;SDS011;6810;63.824;20.288;2023-09-07T15:11:06;3.33;;;1.70;;
13475;SDS011;6810;63.824;20.288;2023-09-07T15:13:34;3.03;;;1.30;;
13475;SDS011;6810;63.824;20.288;2023-09-07T15:16:01;4.57;;;1.50;;
13475;SDS011;6810;63.824;20.288;2023-09-07T15:18:28;3.13;;;1.23;;
13475;SDS011;6810;63.824;20.288;2023-09-07T15:20:55;3.93;;;1.47;;
13475;SDS011;6810;63.824;20.288;2023-09-07T15:23:23;2.83;;;1.73;;
13475;SDS011;6810;63.824;20.288;2023-09-07T15:25:50;2.07;;;1.30;;
13475;SDS011;6810;63.824;20.288;2023-09-07T15:28:18;3.33;;;1.40;;
13475;SDS011;6810;63.824;20.288;2023-09-07T15:30:45;3.00;;;1.30;;
13475;SDS011;6810;63.824;20.288;2023-09-07T15:33:12;3.27;;;1.50;;
13475;SDS011;6810;63.824;20.288;2023-09-07T15:35:40;2.97;;;1.17;;
13475;SDS011;6810;63.824;20.288;2023-09-07T15:38:07;3.73;;;1.50;;
13475;SDS011;6810;63.824;20.288;2023-09-07T15:40:34;4.90;;;1.40;;
13475;SDS011;6810;63.824;20.288;2023-09-07T15:43:01;1.70;;;1.10;;
13475;SDS011;6810;63.824;20.288;2023-09-07T15:45:28;2.37;;;1.20;;
13475;SDS011;6810;63.824;20.288;2023-09-07T15:47:55;3.47;;;1.40;;
13475;SDS011;6810;63.824;20.288;2023-09-07T15:50:22;5.90;;;1.70;;
13475;SDS011;6810;63.824;20.288;2023-09-07T15:52:49;1.43;;;1.20;;
13475;SDS011;6810;63.824;20.288;2023-09-07T15:55:18;3.57;;;1.37;;
13475;SDS011;6810;63.824;20.288;2023-09-07T15:57:45;2.80;;;1.37;;
13475;SDS011;6810;63.824;20.288;2023-09-07T16:00:14;2.17;;;1.40;;
13475;SDS011;6810;63.824;20.288;2023-09-07T16:02:43;4.10;;;1.40;;
13475;SDS011;6810;63.824;20.288;2023-09-07T16:05:11;2.60;;;1.30;;
13475;SDS011;6810;63.824;20.288;2023-09-07T16:07:39;2.43;;;1.27;;
13475;SDS011;6810;63.824;20.288;2023-09-07T16:10:06;2.40;;;1.30;;
13475;SDS011;6810;63.824;20.288;2023-09-07T16:12:33;1.70;;;1.43;;
13475;SDS011;6810;63.824;20.288;2023-09-07T16:15:00;2.80;;;1.30;;
13475;SDS011;6810;63.824;20.288;2023-09-07T16:17:27;2.57;;;1.17;;
13475;SDS011;6810;63.824;20.288;2023-09-07T16:19:54;2.47;;;1.40;;
13475;SDS011;6810;63.824;20.288;2023-09-07T16:22:22;2.30;;;1.13;;
13475;SDS011;6810;63.824;20.288;2023-09-07T16:24:50;3.43;;;1.67;;
13475;SDS011;6810;63.824;20.288;2023-09-07T16:27:16;2.90;;;1.40;;
13475;SDS011;6810;63.824;20.288;2023-09-07T16:29:43;1.83;;;1.07;;
13475;SDS011;6810;63.824;20.288;2023-09-07T16:32:11;2.67;;;1.23;;
13475;SDS011;6810;63.824;20.288;2023-09-07T16:34:41;4.83;;;1.33;;
13475;SDS011;6810;63.824;20.288;2023-09-07T16:37:08;2.93;;;1.60;;
13475;SDS011;6810;63.824;20.288;2023-09-07T16:39:35;3.50;;;1.53;;